China Lake, California
Current Conditions -  °F | °C
As of 3:56 PM on Thursday 27 Nov 2014 (Local Time) from KNID Reporting Station
Clear Clear  
Wind Chill: 70°   Ceiling: Unl
Heat Index: 70°   Visibility: 10mi
Dew Point: 15°   Wind: 3mph
Humidity: 12%   Direction: 360°N
Pressure: 30.14"   Gusts: NA
Location:  35.68°N, 117.68°W
Report Text: KNID 272356Z AUTO 36003KT 10SM CLR 21/M09 A3014 RMK AO2 SLP205 T02111094 10222 20117 56016 $
Loading
Personal Weather Stations






























Interactive Weather Map New forecast layout! Learn more

10-Day Weather Forecast

Advertisements
Track Severe Weather on mobile